GBEUX EGPK-EGPK
Flight info
| Callsign | GBEUX |
|---|---|
| Flight time | 0h 2m |
| Altitude | 5000 |
| Route | VFR CRCTS |
| Aircraft | C152/L-SFG/C |
Departure
| Time | 2026-04-23 17:56 |
|---|---|
| Airport | Glasgow Prestwick Airport (EGPK) |
Arrival
| Time | 2026-04-23 17:59 |
|---|---|
| Airport | Glasgow Prestwick Airport (EGPK) |
| Time | Latitude | Longitude | Altitude | Speed | Heading |
|---|---|---|---|---|---|
| 2026-04-23 17:47 | 55.50164 | -4.58218 | 63 ft | 0 kts | 50° |
| 2026-04-23 17:50 | 55.50127 | -4.58197 | 63 ft | 8 kts | 107° |
| 2026-04-23 17:50 | 55.50105 | -4.58103 | 59 ft | 8 kts | 73° |
| 2026-04-23 17:51 | 55.50156 | -4.58062 | 63 ft | 9 kts | 20° |
| 2026-04-23 17:51 | 55.50217 | -4.58016 | 63 ft | 10 kts | 26° |
| 2026-04-23 17:51 | 55.50296 | -4.57954 | 63 ft | 0 kts | 80° |
| 2026-04-23 17:55 | 55.50350 | -4.57910 | 64 ft | 8 kts | 19° |
| 2026-04-23 17:55 | 55.50402 | -4.57915 | 65 ft | 8 kts | 300° |
| 2026-04-23 17:55 | 55.50474 | -4.58122 | 65 ft | 44 kts | 302° |
| 2026-04-23 17:56 | 55.50701 | -4.58738 | 191 ft | 63 kts | 301° |
| 2026-04-23 17:56 | 55.51364 | -4.59643 | 550 ft | 80 kts | 25° |
| 2026-04-23 17:56 | 55.51753 | -4.58956 | 759 ft | 83 kts | 77° |
| 2026-04-23 17:57 | 55.51539 | -4.58012 | 898 ft | 87 kts | 125° |
| 2026-04-23 17:57 | 55.51210 | -4.57096 | 1052 ft | 89 kts | 120° |
| 2026-04-23 17:57 | 55.50605 | -4.55179 | 989 ft | 91 kts | 120° |
| 2026-04-23 17:58 | 55.50201 | -4.54417 | 932 ft | 82 kts | 169° |
| 2026-04-23 17:58 | 55.49804 | -4.54821 | 778 ft | 68 kts | 244° |
| 2026-04-23 17:58 | 55.49654 | -4.55551 | 625 ft | 66 kts | 271° |
| 2026-04-23 17:58 | 55.49846 | -4.56291 | 454 ft | 67 kts | 301° |
| 2026-04-23 17:59 | 55.50085 | -4.56973 | 280 ft | 64 kts | 297° |
| 2026-04-23 17:59 | 55.50294 | -4.57594 | 91 ft | 53 kts | 299° |
| 2026-04-23 17:59 | 55.50455 | -4.58063 | 65 ft | 37 kts | 301° |
| 2026-04-23 17:59 | 55.50659 | -4.58634 | 121 ft | 66 kts | 302° |
| 2026-04-23 18:00 | 55.50924 | -4.59329 | 314 ft | 70 kts | 302° |
| 2026-04-23 18:00 | 55.51234 | -4.59997 | 507 ft | 75 kts | 330° |
| 2026-04-23 18:00 | 55.51743 | -4.59697 | 677 ft | 86 kts | 34° |
| 2026-04-23 18:00 | 55.52001 | -4.58828 | 878 ft | 85 kts | 101° |
| 2026-04-23 18:01 | 55.51667 | -4.57921 | 987 ft | 91 kts | 127° |
| 2026-04-23 18:01 | 55.51311 | -4.56995 | 1098 ft | 93 kts | 123° |
| 2026-04-23 18:01 | 55.50976 | -4.55993 | 1063 ft | 93 kts | 122° |
| 2026-04-23 18:01 | 55.50644 | -4.55051 | 1073 ft | 88 kts | 125° |
| 2026-04-23 18:02 | 55.50411 | -4.54471 | 1017 ft | 90 kts | 127° |
| 2026-04-23 18:02 | 55.49671 | -4.54229 | 825 ft | 93 kts | 230° |
| 2026-04-23 18:02 | 55.49467 | -4.55127 | 677 ft | 70 kts | 277° |
| 2026-04-23 18:02 | 55.49698 | -4.55823 | 482 ft | 64 kts | 300° |
| 2026-04-23 18:03 | 55.49924 | -4.56483 | 345 ft | 61 kts | 298° |
| 2026-04-23 18:03 | 55.50137 | -4.57125 | 198 ft | 60 kts | 298° |
| 2026-04-23 18:03 | 55.50338 | -4.57724 | 83 ft | 53 kts | 300° |
| 2026-04-23 18:03 | 55.50517 | -4.58241 | 63 ft | 61 kts | 301° |
| 2026-04-23 18:04 | 55.50774 | -4.58927 | 214 ft | 71 kts | 301° |
| 2026-04-23 18:04 | 55.51045 | -4.59662 | 411 ft | 71 kts | 302° |
| 2026-04-23 18:04 | 55.51427 | -4.60190 | 619 ft | 78 kts | 357° |
| 2026-04-23 18:04 | 55.51933 | -4.59778 | 800 ft | 86 kts | 34° |
| 2026-04-23 18:05 | 55.52104 | -4.58846 | 980 ft | 86 kts | 112° |
| 2026-04-23 18:05 | 55.51759 | -4.57947 | 1007 ft | 88 kts | 128° |
| 2026-04-23 18:05 | 55.51392 | -4.57086 | 1013 ft | 87 kts | 129° |
| 2026-04-23 18:05 | 55.51012 | -4.56238 | 999 ft | 90 kts | 129° |
| 2026-04-23 18:06 | 55.50603 | -4.55379 | 932 ft | 91 kts | 146° |
| 2026-04-23 18:06 | 55.50050 | -4.55462 | 787 ft | 88 kts | 236° |
| 2026-04-23 18:06 | 55.49898 | -4.56406 | 514 ft | 71 kts | 291° |
| 2026-04-23 18:06 | 55.50132 | -4.57064 | 327 ft | 60 kts | 299° |
| 2026-04-23 18:07 | 55.50334 | -4.57669 | 113 ft | 53 kts | 298° |
| 2026-04-23 18:07 | 55.50490 | -4.58159 | 59 ft | 49 kts | 301° |
| 2026-04-23 18:07 | 55.50710 | -4.58824 | 158 ft | 70 kts | 300° |
| 2026-04-23 18:07 | 55.51003 | -4.59563 | 317 ft | 75 kts | 318° |
| 2026-04-23 18:08 | 55.51335 | -4.59691 | 473 ft | 76 kts | 9° |
| 2026-04-23 18:08 | 55.51841 | -4.59264 | 661 ft | 81 kts | 41° |
| 2026-04-23 18:08 | 55.51857 | -4.58374 | 835 ft | 78 kts | 126° |
| 2026-04-23 18:08 | 55.51522 | -4.57553 | 832 ft | 86 kts | 127° |
| 2026-04-23 18:09 | 55.51175 | -4.56686 | 890 ft | 87 kts | 128° |
| 2026-04-23 18:09 | 55.50840 | -4.55732 | 940 ft | 92 kts | 123° |
| 2026-04-23 18:09 | 55.50504 | -4.54735 | 958 ft | 91 kts | 117° |
| 2026-04-23 18:09 | 55.50689 | -4.53961 | 1019 ft | 82 kts | 358° |
| 2026-04-23 18:10 | 55.50941 | -4.54756 | 920 ft | 88 kts | 253° |
| 2026-04-23 18:10 | 55.50470 | -4.55376 | 689 ft | 84 kts | 209° |
| 2026-04-23 18:10 | 55.50004 | -4.55836 | 507 ft | 70 kts | 224° |
| 2026-04-23 18:10 | 55.49934 | -4.56498 | 304 ft | 56 kts | 300° |
| 2026-04-23 18:11 | 55.50135 | -4.57095 | 170 ft | 58 kts | 296° |
| 2026-04-23 18:11 | 55.50351 | -4.57770 | 205 ft | 70 kts | 298° |
| 2026-04-23 18:11 | 55.50610 | -4.58545 | 394 ft | 75 kts | 299° |
| 2026-04-23 18:11 | 55.50985 | -4.59093 | 592 ft | 79 kts | 351° |
| 2026-04-23 18:12 | 55.51547 | -4.58817 | 686 ft | 82 kts | 20° |
| 2026-04-23 18:12 | 55.51880 | -4.58121 | 831 ft | 81 kts | 89° |
| 2026-04-23 18:12 | 55.51643 | -4.57184 | 870 ft | 87 kts | 123° |
| 2026-04-23 18:12 | 55.51313 | -4.56289 | 943 ft | 84 kts | 126° |
| 2026-04-23 18:13 | 55.50978 | -4.55480 | 900 ft | 78 kts | 120° |
| 2026-04-23 18:13 | 55.50704 | -4.54617 | 843 ft | 82 kts | 137° |
| 2026-04-23 18:13 | 55.50252 | -4.54589 | 728 ft | 65 kts | 217° |
| 2026-04-23 18:13 | 55.49908 | -4.55093 | 611 ft | 63 kts | 227° |
| 2026-04-23 18:14 | 55.49681 | -4.55752 | 468 ft | 64 kts | 277° |
| 2026-04-23 18:14 | 55.49882 | -4.56388 | 301 ft | 57 kts | 301° |
| 2026-04-23 18:14 | 55.50093 | -4.57008 | 180 ft | 60 kts | 299° |
| 2026-04-23 18:14 | 55.50303 | -4.57619 | 89 ft | 56 kts | 298° |
| 2026-04-23 18:15 | 55.50478 | -4.58134 | 63 ft | 49 kts | 300° |
| 2026-04-23 18:15 | 55.50717 | -4.58787 | 179 ft | 68 kts | 302° |
| 2026-04-23 18:15 | 55.50986 | -4.59515 | 358 ft | 74 kts | 299° |
| 2026-04-23 18:15 | 55.51336 | -4.60080 | 573 ft | 74 kts | 354° |
| 2026-04-23 18:16 | 55.51798 | -4.59608 | 758 ft | 77 kts | 38° |
| 2026-04-23 18:16 | 55.52018 | -4.58803 | 891 ft | 88 kts | 109° |
| 2026-04-23 18:16 | 55.51736 | -4.57808 | 945 ft | 89 kts | 122° |
| 2026-04-23 18:17 | 55.51081 | -4.56049 | 1007 ft | 85 kts | 126° |
| 2026-04-23 18:17 | 55.50714 | -4.55213 | 919 ft | 88 kts | 142° |
| 2026-04-23 18:17 | 55.50145 | -4.55055 | 721 ft | 84 kts | 198° |
| 2026-04-23 18:17 | 55.49718 | -4.55472 | 638 ft | 58 kts | 247° |
| 2026-04-23 18:18 | 55.49802 | -4.56162 | 428 ft | 64 kts | 299° |
| 2026-04-23 18:18 | 55.50042 | -4.56835 | 283 ft | 64 kts | 299° |
| 2026-04-23 18:18 | 55.50266 | -4.57496 | 176 ft | 61 kts | 298° |
| 2026-04-23 18:18 | 55.50478 | -4.58114 | 101 ft | 56 kts | 300° |
| 2026-04-23 18:19 | 55.50673 | -4.58673 | 61 ft | 49 kts | 301° |
| 2026-04-23 18:19 | 55.50803 | -4.59054 | 54 ft | 27 kts | 305° |
| 2026-04-23 18:19 | 55.50892 | -4.59327 | 57 ft | 23 kts | 287° |
| 2026-04-23 18:19 | 55.50850 | -4.59459 | 54 ft | 14 kts | 238° |
| 2026-04-23 18:20 | 55.50797 | -4.59580 | 53 ft | 12 kts | 175° |
| 2026-04-23 18:20 | 55.50746 | -4.59480 | 54 ft | 11 kts | 121° |
| 2026-04-23 18:20 | 55.50706 | -4.59364 | 54 ft | 11 kts | 121° |
| 2026-04-23 18:20 | 55.50662 | -4.59237 | 52 ft | 13 kts | 120° |
| 2026-04-23 18:21 | 55.50613 | -4.59102 | 51 ft | 14 kts | 125° |
| 2026-04-23 18:21 | 55.50566 | -4.58952 | 53 ft | 14 kts | 119° |
| 2026-04-23 18:21 | 55.50525 | -4.58785 | 58 ft | 15 kts | 114° |
| 2026-04-23 18:21 | 55.50472 | -4.58618 | 59 ft | 16 kts | 119° |
| 2026-04-23 18:22 | 55.50412 | -4.58449 | 58 ft | 17 kts | 118° |
| 2026-04-23 18:22 | 55.50350 | -4.58272 | 62 ft | 17 kts | 122° |
| 2026-04-23 18:22 | 55.50286 | -4.58088 | 63 ft | 18 kts | 121° |
| 2026-04-23 18:22 | 55.50191 | -4.58048 | 59 ft | 12 kts | 205° |
| 2026-04-23 18:23 | 55.50184 | -4.58054 | 61 ft | 0 kts | 206° |
| 2026-04-23 18:23 | 55.50113 | -4.58197 | 60 ft | 8 kts | 290° |
| 2026-04-23 18:24 | 55.50121 | -4.58294 | 58 ft | 0 kts | 322° |